createdAt,value
2022-10-22T00:01:59.985Z,14.52
2022-10-22T00:04:48.798Z,14.55
2022-10-22T00:07:39.587Z,14.55
2022-10-22T00:10:29.518Z,14.49
2022-10-22T00:13:17.964Z,14.39
2022-10-22T00:16:06.625Z,14.16
2022-10-22T00:18:55.053Z,14.37
2022-10-22T00:21:43.490Z,14.34
2022-10-22T00:24:32.031Z,14.41
2022-10-22T00:27:21.798Z,14.41
2022-10-22T00:30:11.050Z,14.37
2022-10-22T00:32:59.454Z,14.35
2022-10-22T00:35:48.392Z,14.34
2022-10-22T00:38:36.803Z,14.34
2022-10-22T00:41:25.205Z,14.33
2022-10-22T00:44:47.038Z,14.34
2022-10-22T00:47:39.055Z,14.39
2022-10-22T00:50:30.503Z,14.36
2022-10-22T00:53:22.166Z,14.25
2022-10-22T00:56:11.295Z,14.36
2022-10-22T00:59:01.094Z,14.36
2022-10-22T01:01:50.285Z,14.33
2022-10-22T01:04:40.525Z,14.29
2022-10-22T01:07:29.304Z,14.27
2022-10-22T01:10:25.603Z,14.24
2022-10-22T01:13:21.941Z,14.25
2022-10-22T01:16:13.031Z,14.17
2022-10-22T01:19:09.185Z,14.20
2022-10-22T01:22:01.603Z,14.17
2022-10-22T01:25:01.655Z,14.14
2022-10-22T01:28:02.868Z,14.23
2022-10-22T01:30:54.665Z,14.18
2022-10-22T01:33:44.466Z,14.10
2022-10-22T01:36:34.252Z,14.06
2022-10-22T01:39:24.103Z,14.17
2022-10-22T01:42:13.459Z,14.12
2022-10-22T01:45:01.891Z,14.11
2022-10-22T01:47:58.727Z,14.08
2022-10-22T01:51:05.498Z,14.12
2022-10-22T01:53:56.154Z,13.32
2022-10-22T01:56:56.073Z,14.10
2022-10-22T01:59:51.836Z,14.17
2022-10-22T02:05:40.461Z,14.33
2022-10-22T02:08:31.566Z,14.46
2022-10-22T02:11:19.980Z,14.51
2022-10-22T02:14:08.874Z,14.59
2022-10-22T02:16:58.955Z,14.66
2022-10-22T02:19:49.632Z,14.68
2022-10-22T02:22:40.233Z,14.71
2022-10-22T02:25:31.512Z,14.83
2022-10-22T02:28:26.888Z,14.83
2022-10-22T02:31:18.604Z,14.84
2022-10-22T02:34:11.046Z,14.85
2022-10-22T02:37:00.007Z,14.75
2022-10-22T02:39:50.080Z,14.56
2022-10-22T02:42:39.564Z,14.80
2022-10-22T02:45:28.603Z,14.54
2022-10-22T02:48:18.255Z,14.68
2022-10-22T02:51:07.095Z,14.44
2022-10-22T02:53:55.615Z,14.68
2022-10-22T02:56:45.502Z,14.72
2022-10-22T02:59:34.124Z,14.67
2022-10-22T03:02:22.545Z,14.65
2022-10-22T03:05:11.029Z,14.63
2022-10-22T03:07:59.462Z,14.67
2022-10-22T03:10:47.899Z,14.71
2022-10-22T03:13:37.732Z,14.66
2022-10-22T03:16:26.190Z,14.75
2022-10-22T03:19:14.605Z,14.85
2022-10-22T03:22:05.665Z,14.64
2022-10-22T03:24:57.563Z,15.07
2022-10-22T03:27:46.583Z,15.08
2022-10-22T03:30:36.493Z,15.16
2022-10-22T03:33:24.907Z,15.11
2022-10-22T03:36:13.377Z,15.02
2022-10-22T03:39:02.460Z,14.98
2022-10-22T03:41:51.512Z,14.96
2022-10-22T03:44:40.722Z,14.93
2022-10-22T03:47:30.484Z,14.93
2022-10-22T03:50:19.199Z,14.79
2022-10-22T03:53:10.477Z,14.75
2022-10-22T03:55:58.967Z,14.71
2022-10-22T03:58:47.359Z,14.65
2022-10-22T04:01:35.999Z,14.57
2022-10-22T04:04:25.925Z,14.53
2022-10-22T04:07:14.566Z,14.43
2022-10-22T04:10:02.956Z,14.44
2022-10-22T04:12:51.470Z,14.37
2022-10-22T04:15:39.943Z,14.35
2022-10-22T04:18:28.380Z,14.34
2022-10-22T04:21:19.280Z,14.36
2022-10-22T04:24:07.817Z,14.50
2022-10-22T04:26:56.245Z,14.41
2022-10-22T04:29:44.664Z,14.31
2022-10-22T04:32:33.183Z,14.17
2022-10-22T04:35:21.609Z,14.32
2022-10-22T04:38:11.408Z,14.16
2022-10-22T04:40:59.807Z,14.12
2022-10-22T04:43:48.773Z,14.06
2022-10-22T04:46:37.438Z,14.04
2022-10-22T04:49:25.991Z,13.98
2022-10-22T04:52:14.423Z,14.00
2022-10-22T04:55:04.394Z,13.97
2022-10-22T04:57:52.813Z,14.01
2022-10-22T05:00:41.250Z,13.95
2022-10-22T05:03:29.684Z,14.05
2022-10-22T05:06:20.416Z,13.96
2022-10-22T05:09:12.131Z,13.94
2022-10-22T05:12:01.978Z,13.89
2022-10-22T05:14:50.381Z,13.82
2022-10-22T05:17:39.161Z,13.83
2022-10-22T05:20:27.795Z,13.81
2022-10-22T05:23:16.248Z,13.77
2022-10-22T05:26:05.105Z,13.65
2022-10-22T05:28:55.259Z,13.73
2022-10-22T05:31:43.864Z,13.71
2022-10-22T05:34:33.308Z,13.79
2022-10-22T05:37:21.741Z,13.57
2022-10-22T05:40:19.109Z,13.70
2022-10-22T05:43:15.279Z,13.65
2022-10-22T05:46:06.458Z,13.62
2022-10-22T05:48:56.232Z,13.66
2022-10-22T05:51:44.708Z,13.66
2022-10-22T05:54:33.233Z,13.70
2022-10-22T05:57:21.745Z,13.73
2022-10-22T06:00:14.223Z,13.74
2022-10-22T06:03:06.367Z,13.71
2022-10-22T06:05:57.825Z,13.67
2022-10-22T06:08:46.576Z,13.61
2022-10-22T06:11:35.534Z,13.59
2022-10-22T06:14:24.894Z,13.44
2022-10-22T06:17:13.784Z,13.61
2022-10-22T06:20:06.590Z,13.61
2022-10-22T06:22:55.022Z,13.65
2022-10-22T06:25:44.041Z,13.64
2022-10-22T06:28:33.169Z,13.65
2022-10-22T06:31:21.583Z,13.76
2022-10-22T06:34:13.060Z,13.76
2022-10-22T06:37:02.828Z,13.70
2022-10-22T06:39:51.386Z,13.78
2022-10-22T06:42:40.161Z,13.78
2022-10-22T06:45:29.079Z,13.85
2022-10-22T06:48:17.525Z,13.92
2022-10-22T06:51:08.568Z,13.98
2022-10-22T06:53:59.426Z,13.96
2022-10-22T06:56:47.912Z,14.00
2022-10-22T06:59:36.338Z,14.03
2022-10-22T07:02:24.852Z,14.06
2022-10-22T07:05:13.324Z,14.07
2022-10-22T07:08:01.861Z,14.14
2022-10-22T07:10:51.664Z,14.20
2022-10-22T07:13:40.479Z,14.44
2022-10-22T07:16:32.252Z,14.47
2022-10-22T07:19:20.971Z,14.49
2022-10-22T07:22:09.400Z,14.53
2022-10-22T07:24:57.847Z,14.55
2022-10-22T07:27:47.724Z,14.55
2022-10-22T07:30:36.637Z,14.48
2022-10-22T07:33:25.142Z,14.53
2022-10-22T07:36:17.794Z,14.57
2022-10-22T07:39:06.414Z,14.71
2022-10-22T07:41:54.859Z,14.94
2022-10-22T07:44:44.723Z,14.93
2022-10-22T07:47:33.241Z,15.11
2022-10-22T07:50:21.835Z,15.38
2022-10-22T07:53:10.580Z,15.78
2022-10-22T07:55:59.047Z,16.14
2022-10-22T07:58:47.485Z,16.40
2022-10-22T08:01:37.339Z,16.95
2022-10-22T08:04:25.855Z,16.98
2022-10-22T08:07:14.338Z,16.98
2022-10-22T08:10:02.785Z,16.84
2022-10-22T08:12:51.243Z,16.59
2022-10-22T08:15:39.819Z,16.71
2022-10-22T08:18:30.732Z,16.65
2022-10-22T08:21:19.162Z,16.86
2022-10-22T08:24:08.629Z,17.06
2022-10-22T08:26:57.350Z,17.29
2022-10-22T08:29:45.799Z,17.45
2022-10-22T08:32:34.397Z,17.75
2022-10-22T08:35:24.269Z,17.66
2022-10-22T08:38:12.733Z,18.03
2022-10-22T08:41:07.826Z,17.87
2022-10-22T08:44:09.004Z,17.78
2022-10-22T08:47:07.612Z,18.04
2022-10-22T08:49:56.980Z,18.13
2022-10-22T08:52:50.569Z,17.92
2022-10-22T08:55:39.757Z,17.98
2022-10-22T08:58:31.491Z,17.96
2022-10-22T09:01:23.977Z,18.10
2022-10-22T09:04:17.433Z,18.36
2022-10-22T09:07:05.924Z,18.63
2022-10-22T09:09:56.687Z,18.53
2022-10-22T09:12:45.583Z,18.80
2022-10-22T09:15:34.029Z,18.93
2022-10-22T09:18:34.316Z,18.83
2022-10-22T09:21:27.994Z,18.77
2022-10-22T09:24:26.633Z,18.53
2022-10-22T09:27:19.493Z,18.76
2022-10-22T09:30:11.737Z,18.75
2022-10-22T09:33:07.854Z,18.88
2022-10-22T09:35:58.396Z,18.97
2022-10-22T09:38:49.369Z,19.21
2022-10-22T09:41:38.491Z,19.49
2022-10-22T09:44:28.396Z,19.48
2022-10-22T09:47:42.616Z,19.51
2022-10-22T09:50:41.072Z,19.61
2022-10-22T09:53:31.229Z,19.81
2022-10-22T09:56:23.813Z,19.93
2022-10-22T09:59:15.512Z,19.95
2022-10-22T10:02:20.124Z,19.97
2022-10-22T10:05:10.273Z,20.10
2022-10-22T10:07:59.461Z,19.59
2022-10-22T10:10:50.164Z,20.36
2022-10-22T10:13:44.810Z,20.42
2022-10-22T10:16:42.447Z,20.63
2022-10-22T10:19:41.862Z,20.79
2022-10-22T10:22:44.744Z,20.78
2022-10-22T10:25:42.700Z,20.81
2022-10-22T10:28:43.646Z,20.82
2022-10-22T10:31:40.954Z,20.98
2022-10-22T10:34:41.096Z,21.10
2022-10-22T10:37:32.133Z,21.16
2022-10-22T10:40:26.977Z,21.24
2022-10-22T10:43:19.783Z,21.24
2022-10-22T10:46:13.891Z,21.32
2022-10-22T10:49:04.955Z,21.44
2022-10-22T10:51:59.935Z,21.47
2022-10-22T10:54:55.706Z,21.50
2022-10-22T10:57:50.612Z,21.52
2022-10-22T11:00:44.010Z,21.40
2022-10-22T11:03:42.874Z,21.36
2022-10-22T11:06:32.959Z,21.44
2022-10-22T11:09:25.861Z,21.63
2022-10-22T11:12:22.498Z,21.73
2022-10-22T11:15:21.424Z,21.80
2022-10-22T11:18:17.047Z,22.02
2022-10-22T11:21:12.079Z,22.00
2022-10-22T11:24:05.956Z,22.04
2022-10-22T11:26:58.336Z,21.28
2022-10-22T11:29:51.086Z,22.13
2022-10-22T11:32:40.977Z,22.27
2022-10-22T11:38:24.927Z,22.20
2022-10-22T11:41:15.462Z,22.36
2022-10-22T11:44:11.576Z,22.40
2022-10-22T11:47:05.630Z,22.29
2022-10-22T11:49:59.734Z,22.54
2022-10-22T11:53:07.970Z,22.59
2022-10-22T11:55:59.769Z,22.36
2022-10-22T11:58:52.312Z,22.59
2022-10-22T12:01:49.138Z,22.52
2022-10-22T12:04:43.819Z,22.58
2022-10-22T12:07:34.679Z,22.49
2022-10-22T12:10:27.254Z,22.44
2022-10-22T12:13:22.294Z,22.33
2022-10-22T12:16:14.231Z,22.45
2022-10-22T12:19:08.795Z,22.43
2022-10-22T12:22:00.168Z,22.40
2022-10-22T12:24:50.854Z,22.46
2022-10-22T12:27:41.646Z,22.51
2022-10-22T12:30:34.567Z,22.45
2022-10-22T12:33:25.595Z,22.47
2022-10-22T12:36:19.948Z,22.36
2022-10-22T12:39:13.744Z,22.40
2022-10-22T12:42:02.215Z,22.46
2022-10-22T12:44:56.526Z,22.48
2022-10-22T12:47:47.604Z,22.41
2022-10-22T12:50:38.460Z,22.11
2022-10-22T12:53:31.757Z,22.44
2022-10-22T12:56:23.692Z,22.38
2022-10-22T12:59:18.336Z,22.00
2022-10-22T13:02:16.991Z,21.57
2022-10-22T13:05:16.329Z,22.39
2022-10-22T13:08:06.894Z,22.37
2022-10-22T13:10:56.819Z,22.34
2022-10-22T13:13:45.637Z,22.35
2022-10-22T13:16:34.141Z,22.28
2022-10-22T13:19:40.827Z,22.24
2022-10-22T13:22:32.762Z,22.25
2022-10-22T13:25:24.171Z,22.31
2022-10-22T13:28:22.127Z,22.34
2022-10-22T13:31:15.299Z,22.28
2022-10-22T13:34:11.768Z,22.25
2022-10-22T13:37:04.037Z,22.26
2022-10-22T13:39:52.886Z,22.30
2022-10-22T13:42:41.620Z,22.13
2022-10-22T13:45:31.543Z,22.03
2022-10-22T13:48:21.985Z,22.00
2022-10-22T13:51:15.181Z,21.94
2022-10-22T13:54:04.436Z,21.94
2022-10-22T13:56:53.579Z,21.77
2022-10-22T13:59:42.037Z,21.93
2022-10-22T14:02:31.847Z,21.89
2022-10-22T14:05:20.634Z,21.81
2022-10-22T14:08:11.292Z,21.78
2022-10-22T14:10:59.746Z,21.71
2022-10-22T14:13:48.243Z,21.73
2022-10-22T14:16:38.185Z,21.67
2022-10-22T14:19:28.025Z,21.60
2022-10-22T14:22:17.354Z,21.57
2022-10-22T14:25:06.486Z,21.54
2022-10-22T14:27:54.958Z,21.58
2022-10-22T14:30:43.355Z,21.49
2022-10-22T14:33:33.816Z,21.36
2022-10-22T14:36:24.396Z,21.30
2022-10-22T14:39:13.147Z,21.25
2022-10-22T14:42:01.687Z,21.25
2022-10-22T14:44:50.160Z,21.23
2022-10-22T14:47:38.580Z,21.15
2022-10-22T14:50:27.007Z,20.92
2022-10-22T14:53:17.669Z,21.07
2022-10-22T14:56:06.410Z,21.05
2022-10-22T14:58:54.882Z,21.00
2022-10-22T15:01:43.335Z,20.82
2022-10-22T15:04:31.833Z,20.89
2022-10-22T15:07:21.534Z,20.83
2022-10-22T15:10:11.766Z,20.78
2022-10-22T15:13:00.390Z,20.76
2022-10-22T15:15:48.835Z,20.70
2022-10-22T15:18:37.704Z,20.72
2022-10-22T15:21:26.275Z,20.69
2022-10-22T15:24:14.780Z,20.63
2022-10-22T15:27:04.602Z,20.57
2022-10-22T15:29:53.205Z,20.50
2022-10-22T15:32:42.224Z,20.46
2022-10-22T15:35:31.011Z,20.26
2022-10-22T15:38:19.609Z,20.30
2022-10-22T15:41:10.012Z,20.20
2022-10-22T15:43:59.958Z,20.07
2022-10-22T15:46:48.455Z,19.89
2022-10-22T15:49:38.932Z,19.53
2022-10-22T15:52:27.699Z,19.48
2022-10-22T15:55:16.337Z,19.19
2022-10-22T15:58:04.777Z,19.02
2022-10-22T16:00:55.235Z,18.82
2022-10-22T16:03:44.984Z,18.70
2022-10-22T16:06:37.614Z,18.63
2022-10-22T16:09:29.112Z,18.45
2022-10-22T16:12:18.129Z,18.40
2022-10-22T16:15:10.036Z,17.65
2022-10-22T16:18:11.108Z,18.15
2022-10-22T16:21:00.554Z,18.04
2022-10-22T16:23:51.758Z,17.88
2022-10-22T16:26:41.052Z,17.67
2022-10-22T16:29:29.476Z,17.64
2022-10-22T16:32:18.073Z,17.41
2022-10-22T16:35:10.031Z,17.34
2022-10-22T16:37:58.555Z,17.16
2022-10-22T16:40:47.006Z,17.04
2022-10-22T16:43:35.704Z,16.91
2022-10-22T16:46:24.481Z,16.77
2022-10-22T16:49:12.935Z,16.69
2022-10-22T16:52:02.768Z,16.55
2022-10-22T16:54:51.538Z,16.38
2022-10-22T16:57:40.186Z,16.39
2022-10-22T17:00:28.790Z,16.25
2022-10-22T17:03:17.258Z,16.02
2022-10-22T17:06:07.339Z,15.93
2022-10-22T17:08:57.247Z,15.87
2022-10-22T17:11:46.313Z,15.83
2022-10-22T17:14:34.868Z,15.72
2022-10-22T17:17:23.316Z,15.53
2022-10-22T17:20:12.544Z,15.45
2022-10-22T17:23:01.008Z,15.59
2022-10-22T17:25:50.760Z,15.48
2022-10-22T17:28:39.277Z,15.39
2022-10-22T17:31:29.178Z,15.39
2022-10-22T17:34:18.469Z,15.23
2022-10-22T17:37:06.936Z,15.30
2022-10-22T17:39:55.491Z,15.40
2022-10-22T17:42:45.948Z,15.38
2022-10-22T17:45:34.864Z,15.24
2022-10-22T17:48:25.900Z,15.17
2022-10-22T17:51:15.076Z,15.01
2022-10-22T17:54:07.266Z,15.12
2022-10-22T17:56:58.608Z,15.13
2022-10-22T17:59:48.772Z,14.81
2022-10-22T18:02:37.648Z,14.83
2022-10-22T18:05:26.259Z,14.77
2022-10-22T18:08:14.715Z,14.69
2022-10-22T18:11:07.210Z,14.73
2022-10-22T18:13:57.419Z,14.72
2022-10-22T18:16:48.085Z,14.63
2022-10-22T18:19:36.885Z,14.54
2022-10-22T18:22:25.325Z,14.47
2022-10-22T18:25:13.774Z,14.46
2022-10-22T18:28:02.172Z,14.50
2022-10-22T18:30:50.784Z,14.88
2022-10-22T18:33:45.446Z,14.88
2022-10-22T18:36:33.963Z,14.81
2022-10-22T18:39:22.526Z,14.76
2022-10-22T18:42:11.178Z,14.72
2022-10-22T18:44:59.911Z,14.68
2022-10-22T18:47:48.907Z,14.75
2022-10-22T18:50:39.208Z,14.52
2022-10-22T18:53:27.877Z,14.51
2022-10-22T18:56:16.713Z,14.31
2022-10-22T18:59:05.654Z,14.45
2022-10-22T19:01:55.386Z,13.91
2022-10-22T19:04:44.715Z,14.15
2022-10-22T19:07:36.400Z,14.02
2022-10-22T19:10:25.024Z,14.15
2022-10-22T19:13:14.983Z,14.09
2022-10-22T19:16:06.573Z,14.06
2022-10-22T19:19:01.356Z,14.09
2022-10-22T19:21:50.697Z,14.13
2022-10-22T19:24:40.740Z,14.18
2022-10-22T19:27:31.597Z,14.18
2022-10-22T19:30:20.448Z,14.12
2022-10-22T19:33:09.584Z,14.13
2022-10-22T19:35:58.058Z,14.14
2022-10-22T19:38:48.349Z,14.30
2022-10-22T19:41:38.689Z,14.35
2022-10-22T19:44:27.191Z,14.23
2022-10-22T19:47:16.009Z,14.28
2022-10-22T19:50:04.872Z,14.27
2022-10-22T19:52:53.372Z,14.30
2022-10-22T19:55:44.197Z,14.24
2022-10-22T19:58:34.380Z,14.08
2022-10-22T20:01:23.092Z,14.31
2022-10-22T20:04:15.891Z,14.17
2022-10-22T20:07:06.016Z,14.24
2022-10-22T20:09:54.599Z,14.32
2022-10-22T20:12:43.088Z,14.23
2022-10-22T20:15:33.995Z,14.16
2022-10-22T20:18:23.308Z,14.17
2022-10-22T20:21:15.073Z,14.12
2022-10-22T20:24:03.557Z,14.16
2022-10-22T20:26:52.041Z,14.09
2022-10-22T20:29:40.712Z,14.23
2022-10-22T20:32:30.548Z,14.16
2022-10-22T20:35:19.249Z,14.20
2022-10-22T20:38:09.094Z,14.24
2022-10-22T20:41:02.560Z,14.35
2022-10-22T20:43:52.300Z,14.21
2022-10-22T20:46:40.781Z,14.22
2022-10-22T20:49:32.797Z,14.21
2022-10-22T20:52:21.307Z,14.08
2022-10-22T20:55:09.795Z,14.29
2022-10-22T20:57:58.389Z,14.22
2022-10-22T21:00:47.332Z,14.19
2022-10-22T21:03:36.339Z,14.13
2022-10-22T21:06:26.192Z,14.22
2022-10-22T21:09:16.302Z,14.09
2022-10-22T21:12:06.312Z,14.21
2022-10-22T21:14:54.760Z,14.10
2022-10-22T21:17:43.193Z,14.29
2022-10-22T21:20:31.788Z,14.28
2022-10-22T21:23:21.564Z,14.16
2022-10-22T21:26:10.159Z,13.94
2022-10-22T21:28:58.620Z,14.00
2022-10-22T21:31:49.165Z,13.77
2022-10-22T21:34:39.041Z,13.97
2022-10-22T21:37:29.870Z,13.96
2022-10-22T21:40:19.682Z,13.85
2022-10-22T21:43:08.175Z,13.79
2022-10-22T21:46:07.746Z,13.70
2022-10-22T21:48:58.284Z,13.57
2022-10-22T21:51:46.772Z,13.54
2022-10-22T21:54:37.380Z,13.65
2022-10-22T21:57:27.748Z,13.62
2022-10-22T22:00:17.677Z,13.73
2022-10-22T22:03:07.682Z,13.52
2022-10-22T22:05:59.145Z,13.43
2022-10-22T22:08:47.879Z,13.32
2022-10-22T22:11:36.666Z,13.26
2022-10-22T22:14:26.572Z,13.09
2022-10-22T22:17:16.359Z,13.34
2022-10-22T22:20:05.826Z,13.26
2022-10-22T22:22:54.249Z,13.20
2022-10-22T22:25:42.712Z,12.93
2022-10-22T22:28:31.656Z,13.10
2022-10-22T22:31:24.665Z,13.01
2022-10-22T22:34:15.171Z,12.93
2022-10-22T22:37:03.628Z,12.90
2022-10-22T22:39:52.047Z,12.81
2022-10-22T22:42:40.477Z,12.76
2022-10-22T22:45:28.881Z,12.81
2022-10-22T22:48:18.757Z,12.79
2022-10-22T22:51:08.436Z,12.75
2022-10-22T22:53:58.267Z,12.62
2022-10-22T22:56:46.871Z,12.64
2022-10-22T22:59:35.303Z,12.55
2022-10-22T23:02:23.754Z,12.54
2022-10-22T23:05:13.526Z,12.47
2022-10-22T23:08:01.945Z,12.49
2022-10-22T23:10:50.524Z,12.35
2022-10-22T23:13:39.835Z,12.29
2022-10-22T23:16:29.868Z,12.31
2022-10-22T23:19:20.192Z,12.27
2022-10-22T23:22:09.994Z,12.22
2022-10-22T23:24:58.446Z,12.24
2022-10-22T23:27:46.965Z,12.18
2022-10-22T23:30:35.395Z,12.14
2022-10-22T23:33:23.795Z,12.19
2022-10-22T23:36:13.000Z,12.17
2022-10-22T23:39:05.048Z,12.19
2022-10-22T23:41:54.040Z,12.12
2022-10-22T23:44:42.550Z,12.10
2022-10-22T23:47:31.018Z,11.46
2022-10-22T23:50:19.450Z,12.07
2022-10-22T23:53:08.589Z,12.00
2022-10-22T23:55:58.348Z,12.01
2022-10-22T23:58:50.939Z,12.00
